createdAt,value
2023-03-23T00:00:58.312Z,53.86
2023-03-23T00:01:58.299Z,44.27
2023-03-23T00:02:58.275Z,47.11
2023-03-23T00:03:58.269Z,49.27
2023-03-23T00:04:58.253Z,57.18
2023-03-23T00:05:58.282Z,53.18
2023-03-23T00:06:58.776Z,46.46
2023-03-23T00:07:58.222Z,40.20
2023-03-23T00:08:58.777Z,45.18
2023-03-23T00:09:58.229Z,48.59
2023-03-23T00:10:58.208Z,53.07
2023-03-23T00:11:58.190Z,52.92
2023-03-23T00:12:58.174Z,56.03
2023-03-23T00:13:58.289Z,51.08
2023-03-23T00:14:58.164Z,57.70
2023-03-23T00:15:58.168Z,56.49
2023-03-23T00:16:59.168Z,50.42
2023-03-23T00:17:58.140Z,53.33
2023-03-23T00:18:58.138Z,49.40
2023-03-23T00:19:58.138Z,53.03
2023-03-23T00:20:58.127Z,53.84
2023-03-23T00:21:58.153Z,49.51
2023-03-23T00:24:57.935Z,48.64
2023-03-23T00:25:57.898Z,57.68
2023-03-23T00:26:58.982Z,51.85
2023-03-23T00:27:58.994Z,54.07
2023-03-23T00:28:58.999Z,46.74
2023-03-23T00:29:58.975Z,48.77
2023-03-23T00:30:58.965Z,42.67
2023-03-23T00:31:58.958Z,54.46
2023-03-23T00:32:58.954Z,56.82
2023-03-23T00:33:58.954Z,49.84
2023-03-23T00:34:58.944Z,52.01
2023-03-23T00:35:58.950Z,40.81
2023-03-23T00:36:58.915Z,41.20
2023-03-23T00:37:58.917Z,54.42
2023-03-23T00:38:58.898Z,45.26
2023-03-23T00:39:58.884Z,45.13
2023-03-23T00:40:58.888Z,56.43
2023-03-23T00:41:58.875Z,48.34
2023-03-23T00:42:58.879Z,46.60
2023-03-23T00:43:58.853Z,49.95
2023-03-23T00:44:59.780Z,41.97
2023-03-23T00:45:58.843Z,44.31
2023-03-23T00:46:58.826Z,42.12
2023-03-23T00:47:59.352Z,50.96
2023-03-23T00:48:59.807Z,42.52
2023-03-23T00:49:58.806Z,55.20
2023-03-23T00:50:58.797Z,55.19
2023-03-23T00:51:58.807Z,50.66
2023-03-23T00:52:58.790Z,58.19
2023-03-23T00:53:58.770Z,49.76
2023-03-23T00:54:58.773Z,42.24
2023-03-23T00:55:58.764Z,42.54
2023-03-23T00:56:58.757Z,47.32
2023-03-23T00:57:58.750Z,44.51
2023-03-23T00:58:58.740Z,40.78
2023-03-23T00:59:58.728Z,46.94
2023-03-23T01:00:59.713Z,40.00
2023-03-23T01:01:58.710Z,56.36
2023-03-23T01:02:58.713Z,41.66
2023-03-23T01:03:58.692Z,41.14
2023-03-23T01:04:59.364Z,42.00
2023-03-23T01:05:58.698Z,51.94
2023-03-23T01:06:58.674Z,53.47
2023-03-23T01:07:58.671Z,40.04
2023-03-23T01:08:58.651Z,40.11
2023-03-23T01:09:58.641Z,45.43
2023-03-23T01:10:59.362Z,46.61
2023-03-23T01:11:58.650Z,51.88
2023-03-23T01:12:58.625Z,51.25
2023-03-23T01:13:58.615Z,58.98
2023-03-23T01:14:58.606Z,48.40
2023-03-23T01:15:58.597Z,40.82
2023-03-23T01:16:58.582Z,46.33
2023-03-23T01:17:58.597Z,54.91
2023-03-23T01:18:58.561Z,42.23
2023-03-23T01:19:58.572Z,50.08
2023-03-23T01:20:58.570Z,57.35
2023-03-23T01:21:58.565Z,41.06
2023-03-23T01:22:58.540Z,55.51
2023-03-23T01:23:58.546Z,54.61
2023-03-23T01:24:58.533Z,48.51
2023-03-23T01:25:58.513Z,52.45
2023-03-23T01:26:58.547Z,43.98
2023-03-23T01:27:58.494Z,53.15
2023-03-23T01:28:58.490Z,40.24
2023-03-23T01:29:58.476Z,51.75
2023-03-23T01:30:58.480Z,40.32
2023-03-23T01:31:58.473Z,45.80
2023-03-23T01:32:58.490Z,40.07
2023-03-23T01:33:58.451Z,48.41
2023-03-23T01:34:58.446Z,52.22
2023-03-23T01:35:58.474Z,41.47
2023-03-23T01:36:58.418Z,45.97
2023-03-23T01:37:58.423Z,47.93
2023-03-23T01:38:58.413Z,41.11
2023-03-23T01:39:58.403Z,48.57
2023-03-23T01:40:58.395Z,53.12
2023-03-23T01:41:58.399Z,46.84
2023-03-23T01:42:58.384Z,50.60
2023-03-23T01:43:58.382Z,50.05
2023-03-23T01:44:58.375Z,48.48
2023-03-23T01:45:58.354Z,56.27
2023-03-23T01:46:58.355Z,51.75
2023-03-23T01:47:58.368Z,47.75
2023-03-23T01:48:58.333Z,58.36
2023-03-23T01:49:58.336Z,60.80
2023-03-23T01:50:58.303Z,57.44
2023-03-23T01:51:58.311Z,49.38
2023-03-23T01:52:58.296Z,47.13
2023-03-23T01:53:58.295Z,53.43
2023-03-23T01:54:58.275Z,55.45
2023-03-23T01:55:58.282Z,56.28
2023-03-23T01:56:58.272Z,46.67
2023-03-23T01:57:58.247Z,48.81
2023-03-23T01:58:58.252Z,44.21
2023-03-23T01:59:58.245Z,39.97
2023-03-23T02:00:58.240Z,39.83
2023-03-23T02:01:58.244Z,53.71
2023-03-23T02:02:58.221Z,55.94
2023-03-23T02:03:58.212Z,56.79
2023-03-23T02:04:58.230Z,50.88
2023-03-23T02:05:58.194Z,49.39
2023-03-23T02:06:58.200Z,40.80
2023-03-23T02:07:58.179Z,55.92
2023-03-23T02:08:58.194Z,53.45
2023-03-23T02:09:59.169Z,53.84
2023-03-23T02:10:58.153Z,52.93
2023-03-23T02:11:58.152Z,51.93
2023-03-23T02:12:58.141Z,52.83
2023-03-23T02:13:58.140Z,53.78
2023-03-23T02:14:58.117Z,47.95
2023-03-23T02:15:58.130Z,42.46
2023-03-23T02:16:58.108Z,39.31
2023-03-23T02:17:58.094Z,39.16
2023-03-23T02:18:58.099Z,47.79
2023-03-23T02:19:58.079Z,50.52
2023-03-23T02:20:58.086Z,39.49
2023-03-23T02:21:58.072Z,48.05
2023-03-23T02:22:58.053Z,47.19
2023-03-23T02:23:58.052Z,40.02
2023-03-23T02:24:58.047Z,39.04
2023-03-23T02:25:58.034Z,56.39
2023-03-23T02:26:58.047Z,52.16
2023-03-23T02:27:58.026Z,39.06
2023-03-23T02:28:58.009Z,38.73
2023-03-23T02:29:58.012Z,39.11
2023-03-23T02:30:57.990Z,38.56
2023-03-23T02:31:58.808Z,47.46
2023-03-23T02:32:58.002Z,39.23
2023-03-23T02:33:57.973Z,54.31
2023-03-23T02:34:57.999Z,46.60
2023-03-23T02:35:58.013Z,51.87
2023-03-23T02:36:57.955Z,53.27
2023-03-23T02:37:57.954Z,40.42
2023-03-23T02:38:57.944Z,39.78
2023-03-23T02:39:57.937Z,52.47
2023-03-23T02:40:57.916Z,50.69
2023-03-23T02:41:57.936Z,41.95
2023-03-23T02:42:57.904Z,47.84
2023-03-23T02:43:57.892Z,40.39
2023-03-23T02:44:57.905Z,46.37
2023-03-23T02:45:57.882Z,44.09
2023-03-23T02:46:57.876Z,46.99
2023-03-23T02:47:57.855Z,52.03
2023-03-23T02:48:57.852Z,48.85
2023-03-23T02:49:57.851Z,52.24
2023-03-23T02:50:58.393Z,45.20
2023-03-23T02:51:57.840Z,48.56
2023-03-23T02:52:57.815Z,44.02
2023-03-23T02:53:57.806Z,60.63
2023-03-23T02:54:57.791Z,44.78
2023-03-23T02:55:57.788Z,45.51
2023-03-23T02:56:57.788Z,49.55
2023-03-23T02:57:57.899Z,58.50
2023-03-23T02:58:58.762Z,43.13
2023-03-23T02:59:57.764Z,39.97
2023-03-23T03:00:57.768Z,43.78
2023-03-23T03:01:57.760Z,49.18
2023-03-23T03:02:57.727Z,59.02
2023-03-23T03:03:57.725Z,42.98
2023-03-23T03:04:57.715Z,45.81
2023-03-23T03:05:57.718Z,53.48
2023-03-23T03:06:57.696Z,48.91
2023-03-23T03:07:57.704Z,61.83
2023-03-23T03:08:57.678Z,55.66
2023-03-23T03:09:57.667Z,40.84
2023-03-23T03:10:57.677Z,55.39
2023-03-23T03:11:58.396Z,56.11
2023-03-23T03:12:57.662Z,49.64
2023-03-23T03:13:57.638Z,41.57
2023-03-23T03:14:57.633Z,41.52
2023-03-23T03:15:58.402Z,51.42
2023-03-23T03:16:57.608Z,56.53
2023-03-23T03:17:57.642Z,47.83
2023-03-23T03:18:57.597Z,52.07
2023-03-23T03:19:57.602Z,43.54
2023-03-23T03:20:57.583Z,50.20
2023-03-23T03:21:57.601Z,44.58
2023-03-23T03:22:57.594Z,49.57
2023-03-23T03:23:57.562Z,57.57
2023-03-23T03:24:57.558Z,58.41
2023-03-23T03:25:57.548Z,61.29
2023-03-23T03:26:58.325Z,58.08
2023-03-23T03:27:57.525Z,55.02
2023-03-23T03:28:57.536Z,57.95
2023-03-23T03:29:57.518Z,53.38
2023-03-23T03:30:57.514Z,60.26
2023-03-23T03:31:57.501Z,58.26
2023-03-23T03:32:57.494Z,51.65
2023-03-23T03:33:57.497Z,49.84
2023-03-23T03:34:57.470Z,57.33
2023-03-23T03:35:57.488Z,49.93
2023-03-23T03:36:57.467Z,51.59
2023-03-23T03:37:57.454Z,56.55
2023-03-23T03:38:57.461Z,54.21
2023-03-23T03:39:57.464Z,53.34
2023-03-23T03:40:57.426Z,60.07
2023-03-23T03:41:57.413Z,57.46
2023-03-23T03:42:57.413Z,54.25
2023-03-23T03:43:57.406Z,57.60
2023-03-23T03:44:57.476Z,58.18
2023-03-23T03:45:57.397Z,60.17
2023-03-23T03:46:57.401Z,58.54
2023-03-23T03:47:57.433Z,61.38
2023-03-23T03:48:57.374Z,53.21
2023-03-23T03:49:57.356Z,60.13
2023-03-23T03:50:57.361Z,57.86
2023-03-23T03:51:57.335Z,54.04
2023-03-23T03:52:57.326Z,60.73
2023-03-23T03:56:04.673Z,60.77
2023-03-23T03:57:05.750Z,61.54
2023-03-23T03:58:05.751Z,54.98
2023-03-23T03:59:21.900Z,60.32
2023-03-23T04:00:06.731Z,58.58
2023-03-23T04:01:05.716Z,61.17
2023-03-23T04:02:05.720Z,63.60
2023-03-23T04:03:05.763Z,56.66
2023-03-23T04:04:05.705Z,59.60
2023-03-23T04:05:05.694Z,57.14
2023-03-23T04:06:05.699Z,53.74
2023-03-23T04:07:05.684Z,64.71
2023-03-23T04:08:09.393Z,60.95
2023-03-23T04:09:08.257Z,62.78
2023-03-23T04:10:05.665Z,63.11
2023-03-23T04:11:05.652Z,61.98
2023-03-23T04:12:06.631Z,66.53
2023-03-23T04:13:05.619Z,62.02
2023-03-23T04:14:05.635Z,62.61
2023-03-23T04:15:05.964Z,61.58
2023-03-23T04:16:07.307Z,60.77
2023-03-23T04:17:05.612Z,56.79
2023-03-23T04:18:05.590Z,63.46
2023-03-23T04:19:05.576Z,60.01
2023-03-23T04:20:05.569Z,63.15
2023-03-23T04:21:05.588Z,64.25
2023-03-23T04:22:05.547Z,65.99
2023-03-23T04:23:05.549Z,62.59
2023-03-23T04:24:05.594Z,58.69
2023-03-23T04:25:06.545Z,60.04
2023-03-23T04:26:05.518Z,60.97
2023-03-23T04:27:05.523Z,64.87
2023-03-23T04:28:05.503Z,57.78
2023-03-23T04:29:05.671Z,64.38
2023-03-23T04:30:05.494Z,63.33
2023-03-23T04:31:06.134Z,61.14
2023-03-23T04:32:05.483Z,59.84
2023-03-23T04:33:05.463Z,62.84
2023-03-23T04:34:05.486Z,62.71
2023-03-23T04:35:12.829Z,63.56
2023-03-23T04:36:06.453Z,62.87
2023-03-23T04:37:06.441Z,64.92
2023-03-23T04:38:05.438Z,64.46
2023-03-23T04:39:05.426Z,69.15
2023-03-23T04:40:05.405Z,63.14
2023-03-23T04:41:05.408Z,67.78
2023-03-23T04:42:05.396Z,62.30
2023-03-23T04:43:05.401Z,60.38
2023-03-23T04:44:05.375Z,65.04
2023-03-23T04:45:05.378Z,62.14
2023-03-23T04:46:05.364Z,64.89
2023-03-23T04:47:05.363Z,65.88
2023-03-23T04:48:05.350Z,66.26
2023-03-23T04:49:05.335Z,61.84
2023-03-23T04:50:05.346Z,69.00
2023-03-23T04:51:05.332Z,66.38
2023-03-23T04:52:05.333Z,65.01
2023-03-23T04:53:05.325Z,67.89
2023-03-23T04:54:05.300Z,62.98
2023-03-23T04:55:06.114Z,63.81
2023-03-23T04:56:05.277Z,63.07
2023-03-23T04:57:05.284Z,62.48
2023-03-23T04:58:05.255Z,66.14
2023-03-23T04:59:05.269Z,66.34
2023-03-23T05:00:05.252Z,63.06
2023-03-23T05:01:05.240Z,62.73
2023-03-23T05:02:14.736Z,65.30
2023-03-23T05:03:06.225Z,65.89
2023-03-23T05:04:05.216Z,65.75
2023-03-23T05:05:05.276Z,65.71
2023-03-23T05:06:05.231Z,63.99
2023-03-23T05:07:05.203Z,58.30
2023-03-23T05:08:05.183Z,64.46
2023-03-23T05:09:05.172Z,64.10
2023-03-23T05:10:05.187Z,64.86
2023-03-23T05:11:05.161Z,66.00
2023-03-23T05:12:05.149Z,65.91
2023-03-23T05:13:05.143Z,64.71
2023-03-23T05:14:05.151Z,63.38
2023-03-23T05:15:05.152Z,63.54
2023-03-23T05:16:05.133Z,65.16
2023-03-23T05:17:05.124Z,62.69
2023-03-23T05:18:05.109Z,63.90
2023-03-23T05:19:05.136Z,67.86
2023-03-23T05:20:05.102Z,65.23
2023-03-23T05:21:05.094Z,68.75
2023-03-23T05:22:05.071Z,66.60
2023-03-23T05:23:05.068Z,66.10
2023-03-23T05:24:05.061Z,66.35
2023-03-23T05:25:05.045Z,63.20
2023-03-23T05:26:05.050Z,67.12
2023-03-23T05:27:05.025Z,66.63
2023-03-23T05:28:05.128Z,67.14
2023-03-23T05:29:05.028Z,68.72
2023-03-23T05:30:05.012Z,66.88
2023-03-23T05:31:05.007Z,68.61
2023-03-23T05:32:06.674Z,68.71
2023-03-23T05:33:05.017Z,65.81
2023-03-23T05:34:04.995Z,65.75
2023-03-23T05:35:04.972Z,71.25
2023-03-23T05:36:05.038Z,69.02
2023-03-23T05:37:04.947Z,66.39
2023-03-23T05:38:04.941Z,68.12
2023-03-23T05:39:04.958Z,65.14
2023-03-23T05:40:04.934Z,67.42
2023-03-23T05:41:04.942Z,68.21
2023-03-23T05:42:04.914Z,68.07
2023-03-23T05:43:04.902Z,65.87
2023-03-23T05:44:04.890Z,66.66
2023-03-23T05:45:04.881Z,67.23
2023-03-23T05:46:04.907Z,64.45
2023-03-23T05:47:05.627Z,67.57
2023-03-23T05:48:04.878Z,65.63
2023-03-23T05:49:04.857Z,67.25
2023-03-23T05:50:05.547Z,69.41
2023-03-23T05:51:04.896Z,68.54
2023-03-23T05:52:04.828Z,69.89
2023-03-23T05:53:04.828Z,69.15
2023-03-23T05:54:04.848Z,67.26
2023-03-23T05:55:04.833Z,68.88
2023-03-23T05:56:04.798Z,67.47
2023-03-23T05:57:04.806Z,65.54
2023-03-23T05:58:04.787Z,67.81
2023-03-23T05:59:05.814Z,68.35
2023-03-23T06:00:04.773Z,66.58
2023-03-23T06:01:04.754Z,70.15
2023-03-23T06:02:04.758Z,66.77
2023-03-23T06:03:04.739Z,68.60
2023-03-23T06:04:04.742Z,68.91
2023-03-23T06:05:04.720Z,70.19
2023-03-23T06:06:04.763Z,68.89
2023-03-23T06:07:04.711Z,68.72
2023-03-23T06:08:04.701Z,69.01
2023-03-23T06:09:06.563Z,68.83
2023-03-23T06:10:04.684Z,64.70
2023-03-23T06:11:04.686Z,68.03
2023-03-23T06:12:04.704Z,71.94
2023-03-23T06:13:04.657Z,67.77
2023-03-23T06:14:04.661Z,69.72
2023-03-23T06:15:04.664Z,70.35
2023-03-23T06:16:04.641Z,67.27
2023-03-23T06:17:04.648Z,68.31
2023-03-23T06:18:04.626Z,67.59
2023-03-23T06:19:04.611Z,70.60
2023-03-23T06:20:04.608Z,68.64
2023-03-23T06:21:04.656Z,70.23
2023-03-23T06:22:04.580Z,69.54
2023-03-23T06:23:04.605Z,66.63
2023-03-23T06:26:11.431Z,67.89
2023-03-23T06:27:12.301Z,66.52
2023-03-23T06:28:12.502Z,66.78
2023-03-23T06:29:12.511Z,68.39
2023-03-23T06:30:12.487Z,68.23
2023-03-23T06:31:12.538Z,69.00
2023-03-23T06:32:12.470Z,68.63
2023-03-23T06:33:12.468Z,69.85
2023-03-23T06:34:12.467Z,65.88
2023-03-23T06:35:12.449Z,68.63
2023-03-23T06:36:12.475Z,71.44
2023-03-23T06:37:12.456Z,70.02
2023-03-23T06:38:12.441Z,69.03
2023-03-23T06:39:12.425Z,69.68
2023-03-23T06:40:12.419Z,68.62
2023-03-23T06:41:12.407Z,68.03
2023-03-23T06:42:12.420Z,69.38
2023-03-23T06:43:12.391Z,65.65
2023-03-23T06:44:12.395Z,67.33
2023-03-23T06:45:12.386Z,69.01
2023-03-23T06:46:12.359Z,67.15
2023-03-23T06:47:12.364Z,67.01
2023-03-23T06:48:12.345Z,68.71
2023-03-23T06:49:12.354Z,68.62
2023-03-23T06:50:12.339Z,67.88
2023-03-23T06:51:12.364Z,66.52
2023-03-23T06:52:12.353Z,69.05
2023-03-23T06:53:12.351Z,66.84
2023-03-23T06:54:12.318Z,69.37
2023-03-23T06:55:12.288Z,69.43
2023-03-23T06:56:12.298Z,68.60
2023-03-23T06:57:12.301Z,66.40
2023-03-23T06:58:12.396Z,68.66
2023-03-23T06:59:12.283Z,68.14
2023-03-23T07:00:12.265Z,67.09
2023-03-23T07:01:12.249Z,67.53
2023-03-23T07:02:12.243Z,67.77
2023-03-23T07:03:12.233Z,69.31
2023-03-23T07:04:12.218Z,66.59
2023-03-23T07:05:12.231Z,67.41
2023-03-23T07:06:12.212Z,66.40
2023-03-23T07:07:12.204Z,67.01
2023-03-23T07:08:12.192Z,68.21
2023-03-23T07:09:12.197Z,66.33
2023-03-23T07:10:12.199Z,66.38
2023-03-23T07:11:12.439Z,69.64
2023-03-23T07:12:12.243Z,68.46
2023-03-23T07:13:12.197Z,66.22
2023-03-23T07:14:12.154Z,66.08
2023-03-23T07:15:12.138Z,66.44
2023-03-23T07:16:12.146Z,63.83
2023-03-23T07:17:12.132Z,65.39
2023-03-23T07:18:12.129Z,69.14
2023-03-23T07:19:12.110Z,67.25
2023-03-23T07:20:12.131Z,68.51
2023-03-23T07:21:12.095Z,65.46
2023-03-23T07:22:12.385Z,65.75
2023-03-23T07:23:12.065Z,65.72
2023-03-23T07:24:12.061Z,68.59
2023-03-23T07:25:12.065Z,67.78
2023-03-23T07:26:12.053Z,66.55
2023-03-23T07:27:12.050Z,67.59
2023-03-23T07:28:12.034Z,66.28
2023-03-23T07:29:12.881Z,65.43
2023-03-23T07:30:12.042Z,66.00
2023-03-23T07:31:12.001Z,67.95
2023-03-23T07:32:12.007Z,69.00
2023-03-23T07:33:11.993Z,66.89
2023-03-23T07:34:11.990Z,64.19
2023-03-23T07:35:11.968Z,65.87
2023-03-23T07:36:12.004Z,65.93
2023-03-23T07:37:11.966Z,69.06
2023-03-23T07:38:11.954Z,68.53
2023-03-23T07:39:11.951Z,66.11
2023-03-23T07:40:11.938Z,64.92
2023-03-23T07:41:11.940Z,63.99
2023-03-23T07:42:11.936Z,64.89
2023-03-23T07:43:11.914Z,64.97
2023-03-23T07:44:11.897Z,64.53
2023-03-23T07:45:11.894Z,67.12
2023-03-23T07:46:12.895Z,64.77
2023-03-23T07:47:11.873Z,66.27
2023-03-23T07:48:19.617Z,66.41
2023-03-23T07:49:13.867Z,64.79
2023-03-23T07:50:11.865Z,66.59
2023-03-23T07:51:11.860Z,66.01
2023-03-23T07:52:11.842Z,64.15
2023-03-23T07:53:11.827Z,64.48
2023-03-23T07:54:11.857Z,67.23
2023-03-23T07:55:11.817Z,66.26
2023-03-23T07:56:11.835Z,66.03
2023-03-23T07:57:11.803Z,65.23
2023-03-23T07:58:11.796Z,65.86
2023-03-23T07:59:11.788Z,65.76
2023-03-23T08:00:11.768Z,67.28
2023-03-23T08:01:11.781Z,66.86
2023-03-23T08:02:11.760Z,67.13
2023-03-23T08:03:11.760Z,68.06
2023-03-23T08:04:11.743Z,66.87
2023-03-23T08:05:11.752Z,65.82
2023-03-23T08:06:11.741Z,67.20
2023-03-23T08:07:11.727Z,65.06
2023-03-23T08:08:12.716Z,64.71
2023-03-23T08:09:11.720Z,65.66
2023-03-23T08:10:11.687Z,65.89
2023-03-23T08:11:11.698Z,66.21
2023-03-23T08:12:11.713Z,65.04
2023-03-23T08:13:11.681Z,63.92
2023-03-23T08:14:11.667Z,66.08
2023-03-23T08:15:11.658Z,64.15
2023-03-23T08:16:11.638Z,64.63
2023-03-23T08:17:11.648Z,66.65
2023-03-23T08:18:11.657Z,64.95
2023-03-23T08:19:11.614Z,65.82
2023-03-23T08:20:12.668Z,69.60
2023-03-23T08:21:11.620Z,67.62
2023-03-23T08:22:11.620Z,66.80
2023-03-23T08:23:12.398Z,66.84
2023-03-23T08:24:11.914Z,65.30
2023-03-23T08:25:11.563Z,64.99
2023-03-23T08:26:11.580Z,63.94
2023-03-23T08:27:11.565Z,62.86
2023-03-23T08:28:11.552Z,64.58
2023-03-23T08:29:11.540Z,63.90
2023-03-23T08:30:11.542Z,65.73
2023-03-23T08:31:11.521Z,64.69
2023-03-23T08:32:11.514Z,65.67
2023-03-23T08:33:11.524Z,65.28
2023-03-23T08:34:12.909Z,63.47
2023-03-23T08:35:11.494Z,66.52
2023-03-23T08:36:11.513Z,67.22
2023-03-23T08:37:11.462Z,65.08
2023-03-23T08:38:11.469Z,64.59
2023-03-23T08:39:11.469Z,61.41
2023-03-23T08:40:11.489Z,66.93
2023-03-23T08:41:12.267Z,65.55
2023-03-23T08:42:11.434Z,65.28
2023-03-23T08:43:11.432Z,65.42
2023-03-23T08:44:11.428Z,64.69
2023-03-23T08:45:11.416Z,66.07
2023-03-23T08:46:11.411Z,65.16
2023-03-23T08:47:11.500Z,66.93
2023-03-23T08:48:11.405Z,64.61
2023-03-23T08:49:11.440Z,65.67
2023-03-23T08:50:11.378Z,66.78
2023-03-23T08:51:11.477Z,67.71
2023-03-23T08:52:11.350Z,63.18
2023-03-23T08:53:11.388Z,66.97
2023-03-23T08:54:11.406Z,65.14
2023-03-23T08:55:11.343Z,66.00
2023-03-23T08:56:11.373Z,66.77
2023-03-23T08:57:11.322Z,62.90
2023-03-23T08:58:11.327Z,64.39
2023-03-23T08:59:11.323Z,63.97
2023-03-23T09:00:11.437Z,66.54
2023-03-23T09:01:11.942Z,65.36
2023-03-23T09:02:11.325Z,64.58
2023-03-23T09:03:11.268Z,66.59
2023-03-23T09:04:11.254Z,67.00
2023-03-23T09:05:11.284Z,65.16
2023-03-23T09:06:11.252Z,64.92
2023-03-23T09:07:11.414Z,63.01
2023-03-23T09:08:11.913Z,65.82
2023-03-23T09:09:11.255Z,65.16
2023-03-23T09:10:12.229Z,63.29
2023-03-23T09:11:11.822Z,64.71
2023-03-23T09:12:11.207Z,64.07
2023-03-23T09:13:11.212Z,62.46
2023-03-23T09:14:11.186Z,62.51
2023-03-23T09:15:11.851Z,64.06
2023-03-23T09:16:11.164Z,63.87
2023-03-23T09:17:11.910Z,67.65
2023-03-23T09:18:11.148Z,64.62
2023-03-23T09:19:11.149Z,64.51
2023-03-23T09:20:11.141Z,65.47
2023-03-23T09:21:19.138Z,67.87
2023-03-23T09:22:12.134Z,65.30
2023-03-23T09:23:12.121Z,66.24
2023-03-23T09:24:11.098Z,67.42
2023-03-23T09:25:11.898Z,66.26
2023-03-23T09:26:11.086Z,64.37
2023-03-23T09:27:11.083Z,64.00
2023-03-23T09:28:11.074Z,64.96
2023-03-23T09:29:11.072Z,65.65
2023-03-23T09:30:11.100Z,66.34
2023-03-23T09:31:11.057Z,65.81
2023-03-23T09:32:11.030Z,63.16
2023-03-23T09:33:11.037Z,65.57
2023-03-23T09:34:12.025Z,65.56
2023-03-23T09:35:11.007Z,68.01
2023-03-23T09:36:11.021Z,67.06
2023-03-23T09:37:10.989Z,66.16
2023-03-23T09:38:11.021Z,67.30
2023-03-23T09:39:10.970Z,65.11
2023-03-23T09:40:10.972Z,65.30
2023-03-23T09:41:10.982Z,64.54
2023-03-23T09:42:10.947Z,64.29
2023-03-23T09:43:10.956Z,65.50
2023-03-23T09:44:10.963Z,65.64
2023-03-23T09:45:10.922Z,67.56
2023-03-23T09:46:10.926Z,64.44
2023-03-23T09:47:10.932Z,68.16
2023-03-23T09:48:10.916Z,67.87
2023-03-23T09:49:10.897Z,66.88
2023-03-23T09:50:10.893Z,67.09
2023-03-23T09:51:10.873Z,65.06
2023-03-23T09:52:10.882Z,68.13
2023-03-23T09:53:10.859Z,67.41
2023-03-23T09:54:10.850Z,66.12
2023-03-23T09:55:10.853Z,66.56
2023-03-23T09:56:10.859Z,67.15
2023-03-23T09:57:10.840Z,67.24
2023-03-23T09:58:10.819Z,65.28
2023-03-23T09:59:10.813Z,67.43
2023-03-23T10:00:10.801Z,66.90
2023-03-23T10:01:10.788Z,66.12
2023-03-23T10:02:10.788Z,66.15
2023-03-23T10:03:10.779Z,64.98
2023-03-23T10:04:10.774Z,69.14
2023-03-23T10:05:10.756Z,66.37
2023-03-23T10:06:10.768Z,66.07
2023-03-23T10:07:10.749Z,64.26
2023-03-23T10:08:10.748Z,67.43
2023-03-23T10:09:10.746Z,65.30
2023-03-23T10:10:10.742Z,67.35
2023-03-23T10:11:10.715Z,64.80
2023-03-23T10:12:10.741Z,64.73
2023-03-23T10:13:10.704Z,64.48
2023-03-23T10:14:10.691Z,64.20
2023-03-23T10:15:11.429Z,64.39
2023-03-23T10:16:10.685Z,65.46
2023-03-23T10:17:11.184Z,66.19
2023-03-23T10:18:10.673Z,68.46
2023-03-23T10:19:11.421Z,67.94
2023-03-23T10:20:10.650Z,68.88
2023-03-23T10:21:11.402Z,67.91
2023-03-23T10:22:10.629Z,66.19
2023-03-23T10:23:10.616Z,64.23
2023-03-23T10:24:10.670Z,66.75
2023-03-23T10:25:10.609Z,65.51
2023-03-23T10:26:10.614Z,66.34
2023-03-23T10:27:10.578Z,68.12
2023-03-23T10:28:10.588Z,67.39
2023-03-23T10:29:10.589Z,67.17
2023-03-23T10:30:10.568Z,67.85
2023-03-23T10:31:10.561Z,67.05
2023-03-23T10:32:10.545Z,66.60
2023-03-23T10:33:10.574Z,67.29
2023-03-23T10:34:10.558Z,65.93
2023-03-23T10:35:10.545Z,66.45
2023-03-23T10:36:10.567Z,69.05
2023-03-23T10:37:11.551Z,66.72
2023-03-23T10:38:10.516Z,67.22
2023-03-23T10:39:10.536Z,67.38
2023-03-23T10:40:10.507Z,65.42
2023-03-23T10:41:10.499Z,65.04
2023-03-23T10:42:10.483Z,66.14
2023-03-23T10:43:10.485Z,65.93
2023-03-23T10:44:10.467Z,64.75
2023-03-23T10:45:10.445Z,63.14
2023-03-23T10:46:11.416Z,64.29
2023-03-23T10:47:10.439Z,64.01
2023-03-23T10:48:10.443Z,64.54
2023-03-23T10:49:10.415Z,63.57
2023-03-23T10:50:11.418Z,66.05
2023-03-23T10:51:10.410Z,65.36
2023-03-23T10:52:10.449Z,65.61
2023-03-23T10:53:10.397Z,67.88
2023-03-23T10:54:11.125Z,66.18
2023-03-23T10:55:10.379Z,65.88
2023-03-23T10:56:10.361Z,65.59
2023-03-23T10:57:10.369Z,66.83
2023-03-23T10:58:10.374Z,64.63
2023-03-23T10:59:10.342Z,65.90
2023-03-23T11:00:10.341Z,64.47
2023-03-23T11:01:10.349Z,65.48
2023-03-23T11:02:13.608Z,67.24
2023-03-23T11:03:11.314Z,68.75
2023-03-23T11:04:10.315Z,66.75
2023-03-23T11:05:11.952Z,64.93
2023-03-23T11:06:11.945Z,66.83
2023-03-23T11:07:10.293Z,66.59
2023-03-23T11:08:10.260Z,66.70
2023-03-23T11:09:10.247Z,64.88
2023-03-23T11:10:11.266Z,67.04
2023-03-23T11:11:10.245Z,66.85
2023-03-23T11:12:10.237Z,66.78
2023-03-23T11:13:10.235Z,65.75
2023-03-23T11:14:10.262Z,67.15
2023-03-23T11:15:10.234Z,68.53
2023-03-23T11:16:10.210Z,69.05
2023-03-23T11:17:15.930Z,70.23
2023-03-23T11:18:12.202Z,68.38
2023-03-23T11:19:10.188Z,67.40
2023-03-23T11:20:10.190Z,67.35
2023-03-23T11:21:10.175Z,67.42
2023-03-23T11:22:10.168Z,67.49
2023-03-23T11:23:10.151Z,66.08
2023-03-23T11:24:10.364Z,65.35
2023-03-23T11:25:10.184Z,66.60
2023-03-23T11:26:10.142Z,66.85
2023-03-23T11:27:10.149Z,66.69
2023-03-23T11:28:10.149Z,68.51
2023-03-23T11:29:10.101Z,68.73
2023-03-23T11:30:10.118Z,73.93
2023-03-23T11:31:10.101Z,69.92
2023-03-23T11:32:10.108Z,67.10
2023-03-23T11:33:10.117Z,65.83
2023-03-23T11:34:10.086Z,66.23
2023-03-23T11:35:16.254Z,64.73
2023-03-23T11:36:12.056Z,64.82
2023-03-23T11:37:10.056Z,68.30
2023-03-23T11:38:10.048Z,67.21
2023-03-23T11:39:10.045Z,65.84
2023-03-23T11:40:10.029Z,65.88
2023-03-23T11:41:10.031Z,65.52
2023-03-23T11:42:10.020Z,67.40
2023-03-23T11:43:10.006Z,65.66
2023-03-23T11:44:10.047Z,65.66
2023-03-23T11:45:09.979Z,64.45
2023-03-23T11:46:10.021Z,63.95
2023-03-23T11:47:10.004Z,65.11
2023-03-23T11:48:09.966Z,64.12
2023-03-23T11:49:19.252Z,64.21
2023-03-23T11:50:11.953Z,66.62
2023-03-23T11:51:09.936Z,65.81
2023-03-23T11:52:09.958Z,66.55
2023-03-23T11:53:09.959Z,66.52
2023-03-23T11:54:09.961Z,66.51
2023-03-23T11:55:10.885Z,66.21
2023-03-23T11:56:09.949Z,67.61
2023-03-23T11:57:09.927Z,67.18
2023-03-23T11:58:09.896Z,64.17
2023-03-23T11:59:09.892Z,65.68
2023-03-23T12:00:09.868Z,66.03
2023-03-23T12:01:09.888Z,67.83
2023-03-23T12:02:16.989Z,67.07
2023-03-23T12:03:11.848Z,69.68
2023-03-23T12:04:09.837Z,68.00
2023-03-23T12:05:09.828Z,66.14
2023-03-23T12:06:09.867Z,63.84
2023-03-23T12:07:09.842Z,66.61
2023-03-23T12:08:09.822Z,64.33
2023-03-23T12:09:09.802Z,64.82
2023-03-23T12:10:09.807Z,66.68
2023-03-23T12:11:10.393Z,65.60
2023-03-23T12:12:09.776Z,66.59
2023-03-23T12:13:11.880Z,64.63
2023-03-23T12:14:09.798Z,67.07
2023-03-23T12:15:09.781Z,65.37
2023-03-23T12:16:09.737Z,64.74
2023-03-23T12:17:09.729Z,65.42
2023-03-23T12:18:09.811Z,67.26
2023-03-23T12:19:11.585Z,69.61
2023-03-23T12:20:10.411Z,68.19
2023-03-23T12:21:09.721Z,68.21
2023-03-23T12:22:10.489Z,66.27
2023-03-23T12:23:09.677Z,66.20
2023-03-23T12:24:09.686Z,66.85
2023-03-23T12:25:09.664Z,64.24
2023-03-23T12:26:09.672Z,67.15
2023-03-23T12:27:09.646Z,61.77
2023-03-23T12:28:09.641Z,64.10
2023-03-23T12:29:09.986Z,65.27
2023-03-23T12:30:09.617Z,62.59
2023-03-23T12:31:09.617Z,64.70
2023-03-23T12:32:09.618Z,66.24
2023-03-23T12:33:09.612Z,63.92
2023-03-23T12:34:09.669Z,67.23
2023-03-23T12:35:09.574Z,64.26
2023-03-23T12:36:09.592Z,64.99
2023-03-23T12:37:09.583Z,63.37
2023-03-23T12:38:09.561Z,63.93
2023-03-23T12:39:09.596Z,66.13
2023-03-23T12:40:09.560Z,63.05
2023-03-23T12:41:09.535Z,66.78
2023-03-23T12:42:09.545Z,66.39
2023-03-23T12:43:09.519Z,66.54
2023-03-23T12:44:09.526Z,67.15
2023-03-23T12:45:09.511Z,66.01
2023-03-23T12:46:09.499Z,64.16
2023-03-23T12:47:09.521Z,65.87
2023-03-23T12:48:09.472Z,65.12
2023-03-23T12:49:10.398Z,66.76
2023-03-23T12:50:11.401Z,65.47
2023-03-23T12:51:10.998Z,64.10
2023-03-23T12:52:09.448Z,65.56
2023-03-23T12:53:09.443Z,67.36
2023-03-23T12:54:10.409Z,65.30
2023-03-23T12:55:09.493Z,66.64
2023-03-23T12:56:09.419Z,66.46
2023-03-23T12:57:09.435Z,63.20
2023-03-23T12:58:09.409Z,63.78
2023-03-23T12:59:09.441Z,64.10